Time;durP1;ratioP1;P1;durP2;ratioP2;P2;SDS_P1;SDS_P2;PMS_P1;PMS_P2;Temp;Humidity;BMP_temperature;BMP_pressure;BME280_temperature;BME280_humidity;BME280_pressure;Samples;Min_cycle;Max_cycle;Signal;HPM_P1;HPM_P2
2022/03/04 00:00:27;;;;;;;61.50;30.07;;;;;;;0.68;nan;94769.97;5050948;28;20206;-72
2022/03/04 00:02:55;;;;;;;63.10;31.50;;;;;;;0.52;nan;94773.28;5050709;28;20669;-73
2022/03/04 00:05:22;;;;;;;58.70;30.53;;;;;;;0.34;nan;94773.28;5047628;28;20758;-73
2022/03/04 00:07:49;;;;;;;54.03;26.83;;;;;;;0.45;nan;94771.63;5048347;28;20206;-72
2022/03/04 00:10:15;;;;;;;48.20;28.17;;;;;;;0.33;nan;94769.94;5049508;28;20643;-73
2022/03/04 00:12:42;;;;;;;55.17;28.67;;;;;;;0.51;nan;94774.13;5049507;28;20190;-73
2022/03/04 00:15:10;;;;;;;54.60;27.13;;;;;;;0.72;nan;94774.97;5050375;28;20251;-73
2022/03/04 00:17:47;;;;;;;47.23;25.23;;;;;;;0.80;nan;94769.09;5048495;28;21331;-73
2022/03/04 00:20:20;;;;;;;54.97;26.97;;;;;;;0.93;nan;94769.94;5050114;28;20740;-72
2022/03/04 00:22:48;;;;;;;52.27;25.33;;;;;;;0.86;nan;94749.09;5049285;28;20202;-72
2022/03/04 00:25:16;;;;;;;47.63;25.27;;;;;;;1.07;nan;94773.25;5050160;28;20206;-72
2022/03/04 00:27:44;;;;;;;69.33;26.10;;;;;;;0.94;nan;94764.94;5050321;28;20195;-72
2022/03/04 00:30:12;;;;;;;54.80;27.10;;;;;;;0.68;nan;94759.97;5049993;28;20329;-72
2022/03/04 00:32:39;;;;;;;52.27;27.50;;;;;;;0.63;nan;94760.78;5029990;28;21092;-72
2022/03/04 00:35:09;;;;;;;59.60;27.67;;;;;;;0.52;nan;94765.78;5047672;28;20669;-72
2022/03/04 00:37:35;;;;;;;53.20;28.20;;;;;;;0.34;nan;94763.28;5047641;28;20209;-72
2022/03/04 00:40:02;;;;;;;57.43;27.23;;;;;;;0.54;nan;94760.78;5050992;28;20681;-71
2022/03/04 00:42:29;;;;;;;51.57;27.17;;;;;;;0.62;nan;94752.47;5053437;28;20213;-72
2022/03/04 00:44:56;;;;;;;53.87;26.97;;;;;;;0.79;nan;94749.09;5052829;28;20233;-72
2022/03/04 00:47:23;;;;;;;58.43;27.93;;;;;;;1.01;nan;94763.25;5052958;28;20593;-72
2022/03/04 00:49:50;;;;;;;50.27;26.10;;;;;;;1.05;nan;94757.41;5053594;28;20960;-71
2022/03/04 00:52:18;;;;;;;45.33;26.10;;;;;;;1.03;nan;94751.56;5052733;28;20234;-71
2022/03/04 00:54:45;;;;;;;52.20;25.03;;;;;;;0.84;nan;94757.44;5051103;28;20316;-71
2022/03/04 00:57:12;;;;;;;49.97;26.00;;;;;;;0.85;nan;94754.94;5050764;28;20206;-72
2022/03/04 00:59:38;;;;;;;46.20;27.17;;;;;;;1.03;nan;94754.06;5051124;28;20202;-73
2022/03/04 01:02:05;;;;;;;53.63;26.63;;;;;;;0.77;nan;94750.75;5051845;28;20264;-73
2022/03/04 01:04:32;;;;;;;51.77;26.90;;;;;;;0.72;nan;94749.97;5050918;28;20251;-72
2022/03/04 01:06:59;;;;;;;47.63;27.17;;;;;;;0.60;nan;94751.63;5050685;28;20230;-73
2022/03/04 01:09:29;;;;;;;62.47;27.10;;;;;;;0.68;nan;94752.47;5050366;28;20209;-72
2022/03/04 01:11:55;;;;;;;64.70;27.23;;;;;;;0.73;nan;94749.97;5051097;28;20341;-71
2022/03/04 01:14:22;;;;;;;55.10;27.07;;;;;;;0.64;nan;94743.28;5051252;28;20198;-71
2022/03/04 01:16:49;;;;;;;50.30;26.83;;;;;;;0.75;nan;94739.94;5051072;28;20202;-72
2022/03/04 01:19:16;;;;;;;48.13;26.00;;;;;;;0.65;nan;94739.13;5051162;28;20891;-71
2022/03/04 01:21:43;;;;;;;52.40;25.57;;;;;;;0.65;nan;94739.13;5052662;28;20201;-71
2022/03/04 01:24:10;;;;;;;52.27;27.13;;;;;;;0.60;nan;94731.63;5050599;28;20203;-71
2022/03/04 01:26:39;;;;;;;47.73;26.27;;;;;;;0.60;nan;94726.63;5049310;28;20800;-72
2022/03/04 01:29:05;;;;;;;50.80;26.03;;;;;;;0.48;nan;94725.81;5050212;28;20194;-73
2022/03/04 01:31:32;;;;;;;54.53;27.27;;;;;;;0.44;nan;94719.97;5051195;28;20270;-73
2022/03/04 01:33:59;;;;;;;51.07;27.37;;;;;;;0.53;nan;94724.94;5051588;28;20913;-73
2022/03/04 01:36:30;;;;;;;55.73;28.93;;;;;;;0.60;nan;94719.13;5051740;28;20226;-70
2022/03/04 01:38:57;;;;;;;53.40;28.00;;;;;;;0.68;nan;94719.97;5052243;28;20757;-71
2022/03/04 01:41:24;;;;;;;50.40;26.83;;;;;;;0.76;nan;94724.09;5052272;28;20194;-71
2022/03/04 01:43:52;;;;;;;50.43;27.37;;;;;;;0.39;nan;94718.31;5052885;28;20198;-70
2022/03/04 01:46:24;;;;;;;52.27;28.23;;;;;;;-0.04;nan;94714.13;5050778;28;20203;-72
2022/03/04 01:48:51;;;;;;;58.07;28.97;;;;;;;0.24;nan;94727.47;5052520;28;20302;-72
2022/03/04 01:51:18;;;;;;;56.87;28.80;;;;;;;0.38;nan;94709.97;5049263;28;22165;-71
2022/03/04 01:53:44;;;;;;;53.07;27.93;;;;;;;0.04;nan;94718.28;5050323;28;20222;-71
2022/03/04 01:56:11;;;;;;;55.33;28.30;;;;;;;0.16;nan;94713.31;5048355;28;20202;-72
2022/03/04 01:58:38;;;;;;;48.93;27.53;;;;;;;0.44;nan;94699.16;5049632;28;20297;-70
2022/03/04 02:01:06;;;;;;;52.37;26.57;;;;;;;0.49;nan;94707.47;5048899;28;20207;-70
2022/03/04 02:03:33;;;;;;;56.27;28.43;;;;;;;0.35;nan;94699.97;5048457;28;20295;-71
2022/03/04 02:06:00;;;;;;;59.23;27.07;;;;;;;0.48;nan;94701.66;5048876;28;20670;-71
2022/03/04 02:08:27;;;;;;;54.90;26.33;;;;;;;0.49;nan;94693.31;5049126;28;20568;-71
2022/03/04 02:10:54;;;;;;;55.63;28.60;;;;;;;0.55;nan;94708.28;5049400;28;20287;-70
2022/03/04 02:13:20;;;;;;;56.73;28.10;;;;;;;0.60;nan;94711.63;5048101;28;20278;-71
2022/03/04 02:15:47;;;;;;;53.57;27.77;;;;;;;0.75;nan;94694.91;5049480;28;20677;-71
2022/03/04 02:18:17;;;;;;;58.70;28.60;;;;;;;0.27;nan;94704.97;5049095;28;20213;-72
2022/03/04 02:20:46;;;;;;;49.90;24.53;;;;;;;-0.19;nan;94706.59;5049184;28;20306;-70
2022/03/04 02:23:15;;;;;;;45.67;26.10;;;;;;;-0.03;nan;94710.81;5048527;28;20202;-71
2022/03/04 02:25:43;;;;;;;49.60;26.53;;;;;;;-0.08;nan;94699.13;5048014;28;20670;-70
2022/03/04 02:28:10;;;;;;;54.77;25.73;;;;;;;-0.04;nan;94705.81;5048889;28;20202;-72
2022/03/04 02:30:37;;;;;;;51.73;25.63;;;;;;;0.05;nan;94705.78;5049314;28;20256;-71
2022/03/04 02:33:05;;;;;;;48.30;26.50;;;;;;;0.10;nan;94703.31;5048733;28;20284;-71
2022/03/04 02:35:33;;;;;;;56.63;26.83;;;;;;;0.26;nan;94694.97;5049311;28;20598;-71
2022/03/04 02:38:00;;;;;;;45.20;25.33;;;;;;;0.39;nan;94691.66;5048203;28;20234;-73
2022/03/04 02:40:29;;;;;;;51.10;25.97;;;;;;;0.58;nan;94699.94;5048109;28;20202;-71
2022/03/04 02:42:56;;;;;;;60.10;26.80;;;;;;;0.54;nan;94706.63;5048821;28;20210;-72
2022/03/04 02:45:23;;;;;;;51.03;24.70;;;;;;;0.41;nan;94699.97;5048429;28;20292;-72
2022/03/04 02:47:50;;;;;;;48.07;26.80;;;;;;;0.36;nan;94694.13;5048660;28;20317;-71
2022/03/04 02:50:17;;;;;;;53.63;25.43;;;;;;;0.28;nan;94691.63;5048412;28;20261;-70
2022/03/04 02:52:43;;;;;;;50.93;26.00;;;;;;;0.26;nan;94689.97;5048439;28;20607;-71
2022/03/04 02:55:11;;;;;;;51.83;26.40;;;;;;;0.41;nan;94694.97;5047708;28;20198;-71
2022/03/04 02:57:41;;;;;;;41.33;23.47;;;;;;;0.21;nan;94692.50;5048952;28;20619;-71
2022/03/04 03:00:10;;;;;;;44.23;23.40;;;;;;;0.06;nan;94697.47;5049237;28;20210;-70
2022/03/04 03:02:37;;;;;;;44.97;22.83;;;;;;;0.13;nan;94698.31;5047626;28;21072;-72
2022/03/04 03:05:05;;;;;;;40.57;21.73;;;;;;;0.22;nan;94699.16;5048359;28;20198;-71
2022/03/04 03:07:31;;;;;;;37.47;21.57;;;;;;;0.26;nan;94699.97;5048582;28;20231;-73
2022/03/04 03:09:58;;;;;;;39.50;22.13;;;;;;;0.07;nan;94699.13;5048501;28;20202;-71
2022/03/04 03:12:25;;;;;;;42.87;21.67;;;;;;;0.17;nan;94702.47;5048316;28;20287;-70
2022/03/04 03:14:53;;;;;;;40.97;21.53;;;;;;;0.15;nan;94696.66;5047707;28;20207;-70
2022/03/04 03:17:20;;;;;;;40.50;20.63;;;;;;;0.25;nan;94700.78;5047908;28;20888;-72
2022/03/04 03:19:47;;;;;;;42.30;21.27;;;;;;;0.23;nan;94705.00;5048876;28;20203;-72
2022/03/04 03:22:16;;;;;;;39.27;22.03;;;;;;;0.04;nan;94704.13;5048487;28;21495;-71
2022/03/04 03:24:44;;;;;;;38.10;21.27;;;;;;;0.05;nan;94699.97;5047396;28;20230;-72
2022/03/04 03:27:11;;;;;;;39.07;21.00;;;;;;;0.12;nan;94702.47;5047890;28;20205;-72
2022/03/04 03:29:37;;;;;;;39.67;19.63;;;;;;;0.29;nan;94699.97;5048412;28;20201;-71
2022/03/04 03:32:06;;;;;;;37.13;19.97;;;;;;;0.43;nan;94705.81;5048131;28;20230;-71
2022/03/04 03:34:33;;;;;;;34.17;19.87;;;;;;;0.51;nan;94704.13;5046961;28;20666;-70
2022/03/04 03:37:00;;;;;;;34.80;19.80;;;;;;;0.57;nan;94711.63;5048175;28;20205;-72
2022/03/04 03:39:27;;;;;;;35.40;19.67;;;;;;;0.55;nan;94705.78;5048620;28;20202;-72
2022/03/04 03:41:54;;;;;;;33.27;19.07;;;;;;;0.64;nan;94707.44;5048212;28;20209;-72
2022/03/04 03:44:20;;;;;;;33.10;19.37;;;;;;;0.41;nan;94704.97;5047390;28;20229;-71
2022/03/04 03:46:47;;;;;;;36.67;19.40;;;;;;;0.20;nan;94695.00;5048173;28;20676;-70
2022/03/04 03:49:15;;;;;;;33.70;18.87;;;;;;;0.26;nan;94709.97;5047111;28;20610;-72
2022/03/04 03:51:42;;;;;;;34.17;18.70;;;;;;;0.10;nan;94708.28;5047894;28;20233;-71
2022/03/04 03:54:09;;;;;;;40.80;20.13;;;;;;;-0.03;nan;94707.47;5048210;28;20222;-70
2022/03/04 03:56:36;;;;;;;36.73;19.67;;;;;;;0.00;nan;94712.47;5048354;28;20264;-70
2022/03/04 03:59:03;;;;;;;32.30;19.83;;;;;;;-0.28;nan;94716.59;5047913;28;20680;-71
2022/03/04 04:01:30;;;;;;;36.00;19.50;;;;;;;-0.19;nan;94709.09;5045401;28;20271;-71
2022/03/04 04:03:57;;;;;;;36.33;19.67;;;;;;;-0.18;nan;94707.44;5047117;28;20206;-72
2022/03/04 04:06:25;;;;;;;38.60;19.20;;;;;;;-0.40;nan;94716.53;5047068;28;20289;-70
2022/03/04 04:08:52;;;;;;;37.47;19.93;;;;;;;-0.17;nan;94714.94;5045832;28;20753;-71
2022/03/04 04:11:19;;;;;;;37.73;21.60;;;;;;;-0.09;nan;94713.28;5046590;28;20218;-71
2022/03/04 04:13:46;;;;;;;35.27;20.60;;;;;;;-0.21;nan;94719.91;5046157;28;20213;-71
2022/03/04 04:16:14;;;;;;;37.70;19.47;;;;;;;-0.21;nan;94718.25;5046713;28;20653;-71
2022/03/04 04:18:41;;;;;;;37.90;20.30;;;;;;;-0.15;nan;94723.25;5047146;28;20209;-72
2022/03/04 04:21:08;;;;;;;40.13;22.53;;;;;;;-0.30;nan;94722.41;5045234;28;20530;-72
2022/03/04 04:23:36;;;;;;;38.57;21.70;;;;;;;-0.36;nan;94718.22;5046540;28;20297;-71
2022/03/04 04:26:05;;;;;;;40.67;20.50;;;;;;;-0.23;nan;94704.09;5047251;28;20788;-73
2022/03/04 04:28:32;;;;;;;40.60;21.00;;;;;;;-0.43;nan;94731.50;5047193;28;20214;-71
2022/03/04 04:30:59;;;;;;;45.27;22.70;;;;;;;-0.62;nan;94722.28;5046897;28;20293;-73
2022/03/04 04:33:26;;;;;;;59.10;29.77;;;;;;;-0.61;nan;94736.44;5046684;28;20710;-71
2022/03/04 04:35:53;;;;;;;41.47;24.97;;;;;;;-0.55;nan;94731.47;5045983;28;20202;-72
2022/03/04 04:38:20;;;;;;;47.93;26.13;;;;;;;-0.78;nan;94739.72;5047109;28;20289;-72
2022/03/04 04:40:48;;;;;;;53.57;29.67;;;;;;;-0.66;nan;94741.41;5046631;28;20202;-70
2022/03/04 04:43:15;;;;;;;59.53;32.20;;;;;;;-1.10;nan;94738.72;5046243;28;20198;-70
2022/03/04 04:45:42;;;;;;;68.17;33.70;;;;;;;-1.09;nan;94747.84;5046486;28;20198;-71
2022/03/04 04:48:08;;;;;;;71.83;37.03;;;;;;;-1.44;nan;94750.94;5046688;28;20214;-71
2022/03/04 04:50:35;;;;;;;72.80;36.10;;;;;;;-1.40;nan;94747.66;5046326;28;20234;-72
2022/03/04 04:53:04;;;;;;;67.70;35.73;;;;;;;-1.59;nan;94750.84;5046754;28;20233;-73
2022/03/04 04:55:31;;;;;;;70.57;33.83;;;;;;;-1.22;nan;94748.59;5046769;28;20225;-71
2022/03/04 04:57:59;;;;;;;58.53;31.03;;;;;;;-1.18;nan;94747.78;5046232;28;20680;-70
2022/03/04 05:00:26;;;;;;;61.37;30.70;;;;;;;-1.01;nan;94756.22;5046897;28;20471;-71
2022/03/04 05:02:53;;;;;;;61.73;31.23;;;;;;;-1.21;nan;94752.75;5046473;28;20232;-71
2022/03/04 05:05:20;;;;;;;60.63;30.90;;;;;;;-0.98;nan;94746.25;5046046;28;20206;-73
2022/03/04 05:07:48;;;;;;;52.37;26.53;;;;;;;-1.22;nan;94751.09;5046874;28;20244;-72
2022/03/04 05:10:15;;;;;;;54.23;29.27;;;;;;;-1.21;nan;94748.59;5045684;28;20674;-71
2022/03/04 05:12:41;;;;;;;58.67;29.03;;;;;;;-1.16;nan;94751.13;5044272;28;20226;-71
2022/03/04 05:15:10;;;;;;;98.53;44.57;;;;;;;-0.84;nan;94743.84;5045014;28;20248;-73
2022/03/04 05:17:38;;;;;;;58.20;29.53;;;;;;;-0.60;nan;94743.94;5046270;28;20199;-72
2022/03/04 05:20:06;;;;;;;52.10;28.73;;;;;;;-0.50;nan;94740.66;5047128;28;20421;-73
2022/03/04 05:22:33;;;;;;;48.23;24.27;;;;;;;-0.33;nan;94738.19;5045902;28;20293;-71
2022/03/04 05:25:00;;;;;;;40.73;23.20;;;;;;;-0.20;nan;94749.88;5046854;28;20240;-72
2022/03/04 05:27:27;;;;;;;42.40;23.13;;;;;;;0.02;nan;94749.91;5050083;28;20211;-72
2022/03/04 05:29:54;;;;;;;53.10;23.60;;;;;;;0.38;nan;94749.97;5050155;28;20213;-70
2022/03/04 05:32:22;;;;;;;46.37;24.13;;;;;;;1.08;nan;94749.06;5049571;28;23140;-73
2022/03/04 05:34:49;;;;;;;45.60;23.10;;;;;;;1.31;nan;94748.16;5050002;28;20754;-71
2022/03/04 05:37:16;;;;;;;44.47;24.63;;;;;;;0.58;nan;94750.78;5049907;28;20728;-72
2022/03/04 05:39:43;;;;;;;44.60;25.33;;;;;;;0.10;nan;94744.09;5049959;28;20600;-72
2022/03/04 05:42:10;;;;;;;63.77;32.50;;;;;;;0.19;nan;94755.78;5049343;28;21707;-72
2022/03/04 05:44:36;;;;;;;59.03;28.80;;;;;;;0.09;nan;94751.59;5049325;28;20651;-72
2022/03/04 05:47:04;;;;;;;50.77;28.63;;;;;;;-0.23;nan;94749.88;5049449;28;20203;-72
2022/03/04 05:49:32;;;;;;;57.73;28.40;;;;;;;-0.12;nan;94758.22;5049413;28;20303;-73
2022/03/04 05:52:00;;;;;;;46.10;26.07;;;;;;;-0.10;nan;94738.25;5048924;28;20314;-72
2022/03/04 05:54:26;;;;;;;51.27;28.07;;;;;;;0.32;nan;94762.44;5050809;28;20632;-72
2022/03/04 05:56:55;;;;;;;56.37;27.43;;;;;;;0.77;nan;94758.28;5050681;28;20199;-73
2022/03/04 05:59:22;;;;;;;46.23;24.43;;;;;;;1.17;nan;94754.03;5050464;28;20255;-72
2022/03/04 06:01:49;;;;;;;39.57;23.80;;;;;;;1.52;nan;94753.91;5049696;28;20210;-71
2022/03/04 06:04:16;;;;;;;55.37;27.50;;;;;;;2.41;nan;94757.59;5051142;28;20254;-73
2022/03/04 06:06:45;;;;;;;51.93;26.23;;;;;;;3.43;nan;94754.16;5049521;28;20657;-74
2022/03/04 06:09:11;;;;;;;42.13;23.37;;;;;;;3.62;nan;94752.25;5050980;28;20340;-74
2022/03/04 06:11:38;;;;;;;44.70;23.93;;;;;;;4.20;nan;94754.03;5050830;28;20210;-72
2022/03/04 06:14:06;;;;;;;41.77;23.73;;;;;;;4.85;nan;94764.78;5050987;28;20264;-71
2022/03/04 06:16:32;;;;;;;41.88;22.20;;;;;;;5.37;nan;94760.50;5048739;28;20709;-73
2022/03/04 06:18:59;;;;;;;40.50;22.95;;;;;;;5.47;nan;94756.94;5049493;28;20761;-71
2022/03/04 06:21:26;;;;;;;41.17;22.58;;;;;;;5.34;nan;94759.72;5050959;28;20687;-73
2022/03/04 06:23:55;;;;;;;39.83;22.73;;;;;;;4.84;nan;94758.06;5051703;28;20696;-72
2022/03/04 06:26:22;;;;;;;40.37;22.80;;;;;;;4.56;nan;94757.69;5049276;28;20279;-71
2022/03/04 06:28:48;;;;;;;46.87;22.57;;;;;;;4.24;nan;94756.47;5050156;28;20206;-72
2022/03/04 06:31:15;;;;;;;35.22;21.98;;;;;;;4.30;nan;94756.38;5049362;28;20604;-74
2022/03/04 06:33:42;;;;;;;49.53;22.90;;;;;;;3.97;nan;94757.66;5050478;28;20658;-72
2022/03/04 06:36:11;;;;;;;39.80;21.77;;;;;;;3.76;nan;94756.25;5047486;28;20210;-72
2022/03/04 06:38:41;;;;;;;42.35;23.85;;;;;;;3.38;nan;94760.91;5051479;28;20673;-71
2022/03/04 06:41:09;;;;;;;43.10;23.17;;;;;;;3.19;nan;94744.38;5048991;28;20260;-72
2022/03/04 06:43:36;;;;;;;48.75;23.88;;;;;;;3.40;nan;94757.53;5050623;28;20198;-71
2022/03/04 06:46:03;;;;;;;44.50;24.07;;;;;;;3.46;nan;94758.31;5050430;28;20202;-72
2022/03/04 06:48:30;;;;;;;45.23;25.63;;;;;;;3.42;nan;94758.34;5048395;28;21032;-72
2022/03/04 06:50:57;;;;;;;49.85;29.95;;;;;;;3.29;nan;94763.50;5051258;28;20245;-72
2022/03/04 06:53:25;;;;;;;54.37;31.30;;;;;;;2.91;nan;94764.72;5052002;28;20245;-72
2022/03/04 06:55:52;;;;;;;48.07;27.97;;;;;;;2.70;nan;94770.75;5052035;28;20633;-72
2022/03/04 06:58:20;;;;;;;44.60;26.07;;;;;;;2.52;nan;94775.91;5051082;28;20206;-73
2022/03/04 07:00:48;;;;;;;47.67;26.00;;;;;;;2.74;nan;94774.88;5050967;28;20225;-72
2022/03/04 07:03:15;;;;;;;39.67;24.77;;;;;;;2.81;nan;94772.34;5050960;28;20838;-73
2022/03/04 07:05:43;;;;;;;45.17;24.07;;;;;;;2.85;nan;94782.34;5052134;28;20195;-72
2022/03/04 07:08:11;;;;;;;56.00;26.35;;;;;;;2.89;nan;94778.13;5051976;28;20294;-72
2022/03/04 07:10:38;;;;;;;41.17;24.73;;;;;;;2.83;nan;94780.69;5051724;28;20214;-72
2022/03/04 07:13:06;;;;;;;37.60;23.57;;;;;;;3.26;nan;94774.41;5050431;28;20229;-72
2022/03/04 07:15:34;;;;;;;47.70;25.57;;;;;;;3.70;nan;94780.66;5051015;28;20190;-74
2022/03/04 07:18:02;;;;;;;42.67;24.83;;;;;;;3.59;nan;94775.75;5051605;28;20302;-72
2022/03/04 07:20:29;;;;;;;45.50;25.50;;;;;;;4.53;nan;94777.84;5051378;28;20210;-71
2022/03/04 07:22:56;;;;;;;47.27;26.20;;;;;;;4.93;nan;94773.03;5050330;28;20203;-72
2022/03/04 07:25:23;;;;;;;48.67;25.25;;;;;;;5.17;nan;94766.75;5051992;28;20862;-72
2022/03/04 07:27:50;;;;;;;74.20;34.85;;;;;;;5.80;nan;94779.84;5050689;28;20225;-70
2022/03/04 07:30:17;;;;;;;52.67;29.30;;;;;;;6.11;nan;94770.81;5050585;28;20389;-72
2022/03/04 07:32:46;;;;;;;46.85;26.35;;;;;;;5.99;nan;94770.22;5050898;28;20229;-71
2022/03/04 07:35:14;;;;;;;52.45;26.90;;;;;;;6.05;nan;94781.03;5051330;28;22007;-72
2022/03/04 07:37:43;;;;;;;47.25;25.45;;;;;;;5.60;nan;94781.91;5051311;28;20205;-72
2022/03/04 07:40:13;;;;;;;45.25;25.70;;;;;;;5.33;nan;94788.28;5051166;28;20762;-73
2022/03/04 07:42:40;;;;;;;51.45;25.67;;;;;;;5.42;nan;94783.94;5050594;28;20198;-72
2022/03/04 07:45:09;;;;;;;53.17;26.98;;;;;;;5.39;nan;94789.03;5051391;28;20206;-73
2022/03/04 07:47:36;;;;;;;40.50;24.48;;;;;;;5.63;nan;94789.44;5050213;28;20217;-73
2022/03/04 07:50:05;;;;;;;47.80;25.67;;;;;;;4.91;nan;94787.34;5051107;28;20283;-71
2022/03/04 07:52:33;;;;;;;48.83;25.50;;;;;;;5.00;nan;94780.44;5049511;28;20222;-71
2022/03/04 07:55:01;;;;;;;38.83;21.80;;;;;;;5.32;nan;94766.47;5050495;28;20670;-72
2022/03/04 07:57:28;;;;;;;40.72;22.30;;;;;;;5.01;nan;94779.59;5051435;28;20194;-73
2022/03/04 07:59:55;;;;;;;55.55;28.95;;;;;;;4.81;nan;94774.06;5050537;28;20672;-73
2022/03/04 08:02:22;;;;;;;60.25;27.30;;;;;;;5.09;nan;94777.78;5050873;28;20214;-71
2022/03/04 08:04:49;;;;;;;46.38;25.25;;;;;;;5.15;nan;94776.03;5050849;28;20297;-71
2022/03/04 08:07:18;;;;;;;42.90;22.92;;;;;;;5.04;nan;94783.75;5050974;28;20197;-71
2022/03/04 08:09:45;;;;;;;43.47;23.75;;;;;;;5.11;nan;94780.28;5050019;28;20692;-71
2022/03/04 08:12:13;;;;;;;48.55;23.25;;;;;;;5.17;nan;94774.31;5050221;28;20199;-71
2022/03/04 08:14:40;;;;;;;41.45;23.08;;;;;;;5.40;nan;94775.56;5051470;28;20375;-71
2022/03/04 08:17:07;;;;;;;46.20;22.33;;;;;;;5.32;nan;94781.59;5051312;28;20559;-70
2022/03/04 08:19:35;;;;;;;44.80;24.03;;;;;;;5.71;nan;94777.47;5050462;28;20206;-72
2022/03/04 08:22:03;;;;;;;46.03;22.80;;;;;;;5.69;nan;94772.47;5049349;28;20292;-72
2022/03/04 08:24:31;;;;;;;42.50;24.27;;;;;;;5.54;nan;94780.34;5049605;28;20705;-72
2022/03/04 08:26:58;;;;;;;43.00;22.88;;;;;;;5.79;nan;94781.53;5050404;28;20532;-71
2022/03/04 08:29:24;;;;;;;44.57;22.77;;;;;;;6.51;nan;94785.09;5049510;28;20232;-72
2022/03/04 08:31:51;;;;;;;46.72;21.73;;;;;;;7.25;nan;94774.91;5049781;28;20195;-70
2022/03/04 08:34:18;;;;;;;40.92;21.75;;;;;;;8.58;nan;94774.59;5050144;28;20788;-72
2022/03/04 08:36:45;;;;;;;43.25;22.00;;;;;;;9.39;nan;94779.59;5049545;28;20206;-72
2022/03/04 08:39:12;;;;;;;37.85;20.08;;;;;;;10.73;nan;94760.34;5050458;28;20197;-72
2022/03/04 08:41:41;;;;;;;50.92;21.75;;;;;;;11.10;nan;94762.28;5050221;28;20218;-72
2022/03/04 08:44:08;;;;;;;41.05;22.02;;;;;;;12.14;nan;94768.88;5050412;28;20202;-72
2022/03/04 08:46:35;;;;;;;60.05;29.55;;;;;;;12.22;nan;94773.63;5050360;28;20215;-72
2022/03/04 08:49:03;;;;;;;46.10;23.77;;;;;;;11.37;nan;94767.13;5049461;28;20340;-71
2022/03/04 08:51:30;;;;;;;40.83;21.52;;;;;;;13.28;nan;94767.84;5050263;28;20237;-70
2022/03/04 08:53:57;;;;;;;43.58;22.90;;;;;;;14.78;nan;94754.13;5051572;28;20328;-71
2022/03/04 08:56:24;;;;;;;38.97;22.55;;;;;;;14.87;nan;94757.88;5048710;28;20206;-71
2022/03/04 08:58:53;;;;;;;39.75;21.83;;;;;;;14.89;nan;94756.88;5049844;28;20618;-71
2022/03/04 09:01:20;;;;;;;35.33;19.67;;;;;;;13.01;nan;94779.34;5053768;28;20768;-71
2022/03/04 09:03:46;;;;;;;34.97;22.00;;;;;;;14.88;nan;94762.09;5053416;28;20259;-71
2022/03/04 09:06:14;;;;;;;30.23;17.17;;;;;;;13.39;nan;94765.59;5054118;28;20203;-71
2022/03/04 09:08:41;;;;;;;28.10;17.17;;;;;;;13.77;nan;94762.88;5054617;28;20299;-70
2022/03/04 09:11:08;;;;;;;36.92;19.83;;;;;;;14.94;nan;94754.91;5054445;28;20653;-72
2022/03/04 09:13:35;;;;;;;39.90;21.00;;;;;;;14.87;nan;94758.69;5054787;28;21077;-71
2022/03/04 09:16:04;;;;;;;32.25;21.20;;;;;;;14.10;nan;94753.50;5054640;28;20190;-72
2022/03/04 09:18:31;;;;;;;40.97;22.95;;;;;;;15.87;nan;94753.88;5054454;28;22072;-72
2022/03/04 09:20:58;;;;;;;36.97;21.60;;;;;;;17.17;nan;94751.84;5053975;28;20686;-71
2022/03/04 09:23:25;;;;;;;52.67;28.75;;;;;;;15.68;nan;94753.31;5055110;28;20209;-71
2022/03/04 09:25:52;;;;;;;43.10;23.65;;;;;;;15.93;nan;94748.41;5053311;28;20222;-72
2022/03/04 09:28:19;;;;;;;43.17;20.75;;;;;;;13.80;nan;94757.63;5053046;28;20210;-72
2022/03/04 09:30:46;;;;;;;34.53;19.85;;;;;;;13.72;nan;94762.28;5052700;28;20206;-72
2022/03/04 09:33:14;;;;;;;43.58;20.75;;;;;;;13.03;nan;94757.97;5051613;28;20311;-71
2022/03/04 09:35:41;;;;;;;43.15;20.98;;;;;;;13.11;nan;94755.06;5051911;28;20233;-72
2022/03/04 09:38:08;;;;;;;40.05;20.77;;;;;;;14.25;nan;94754.41;5052596;28;20206;-71
2022/03/04 09:40:35;;;;;;;45.38;22.67;;;;;;;13.72;nan;94754.63;5053362;28;20220;-71
2022/03/04 09:43:02;;;;;;;40.80;21.45;;;;;;;14.16;nan;94753.16;5051544;28;20203;-70
2022/03/04 09:45:30;;;;;;;33.10;22.27;;;;;;;14.08;nan;94754.47;5054642;28;20627;-72
2022/03/04 09:47:57;;;;;;;37.40;23.13;;;;;;;12.35;nan;94763.75;5054531;28;20951;-71
2022/03/04 09:50:28;;;;;;;44.72;24.05;;;;;;;12.44;nan;94760.75;5055195;28;20241;-71
2022/03/04 09:52:56;;;;;;;46.70;23.90;;;;;;;11.45;nan;94760.81;5054509;28;20295;-72
2022/03/04 09:55:23;;;;;;;40.25;24.90;;;;;;;10.22;nan;94766.50;5053599;28;20289;-72
2022/03/04 09:57:49;;;;;;;40.70;25.38;;;;;;;10.50;nan;94757.84;5052416;28;20203;-71
2022/03/04 10:00:17;;;;;;;46.22;23.77;;;;;;;9.72;nan;94767.47;5048976;28;20198;-71
2022/03/04 10:02:44;;;;;;;42.60;25.45;;;;;;;9.85;nan;94758.56;5051600;28;20209;-71
2022/03/04 10:05:11;;;;;;;47.60;24.08;;;;;;;9.46;nan;94756.50;5053078;28;20198;-72
2022/03/04 10:07:44;;;;;;;41.50;25.70;;;;;;;8.65;nan;94724.56;5054693;28;20244;-72
2022/03/04 10:10:16;;;;;;;50.75;25.50;;;;;;;8.78;nan;94752.00;5054440;28;20288;-71
2022/03/04 10:12:51;;;;;;;45.33;24.30;;;;;;;8.80;nan;94740.09;5053781;28;20217;-73
2022/03/04 10:15:19;;;;;;;49.45;25.70;;;;;;;8.81;nan;94749.38;5051786;28;21797;-72
2022/03/04 10:18:00;;;;;;;52.08;22.38;;;;;;;8.36;nan;94733.06;5053108;28;20889;-73
2022/03/04 10:20:39;;;;;;;41.65;22.48;;;;;;;8.64;nan;94733.88;5051975;28;20754;-73
2022/03/04 10:23:19;;;;;;;32.83;20.00;;;;;;;8.53;nan;94730.84;5052670;28;22097;-71
2022/03/04 10:25:48;;;;;;;32.17;16.17;;;;;;;8.24;nan;94734.22;5050651;28;20209;-70
2022/03/04 10:28:15;;;;;;;47.28;23.27;;;;;;;8.61;nan;94733.16;5050740;28;20202;-71
2022/03/04 10:30:48;;;;;;;56.53;33.03;;;;;;;8.98;nan;94723.47;5051367;28;20198;-72
2022/03/04 10:33:17;;;;;;;25.85;16.92;;;;;;;9.01;nan;94725.09;5054443;28;20290;-71
2022/03/04 10:35:45;;;;;;;26.77;16.48;;;;;;;8.84;nan;94721.41;5052066;28;20205;-71
2022/03/04 10:38:22;;;;;;;27.42;17.05;;;;;;;8.91;nan;94711.06;5051895;28;20210;-72
2022/03/04 10:40:49;;;;;;;26.35;14.93;;;;;;;8.69;nan;94709.22;5054742;28;20202;-73
2022/03/04 10:43:23;;;;;;;32.17;13.20;;;;;;;8.81;nan;94711.38;5053212;28;20202;-71
2022/03/04 10:46:00;;;;;;;25.90;14.27;;;;;;;9.01;nan;94712.41;5052944;28;20340;-71
2022/03/04 10:48:27;;;;;;;23.83;12.48;;;;;;;9.13;nan;94704.41;5052240;28;20255;-71
2022/03/04 10:50:56;;;;;;;14.45;10.50;;;;;;;9.38;nan;94697.63;5048860;28;20230;-71
2022/03/04 10:53:25;;;;;;;18.10;10.52;;;;;;;9.64;nan;94694.19;5048260;28;20218;-71
2022/03/04 10:55:54;;;;;;;19.02;11.63;;;;;;;9.40;nan;94700.13;5048027;28;20279;-72
2022/03/04 10:58:22;;;;;;;16.70;11.35;;;;;;;9.31;nan;94690.28;5047132;28;20206;-73
2022/03/04 11:00:51;;;;;;;26.40;11.98;;;;;;;9.08;nan;94694.44;5047356;28;20916;-73
2022/03/04 11:03:20;;;;;;;17.20;12.05;;;;;;;9.20;nan;94685.56;5047783;28;20206;-73
2022/03/04 11:05:49;;;;;;;19.58;11.30;;;;;;;9.29;nan;94680.19;5046906;28;20234;-71
2022/03/04 11:08:16;;;;;;;15.18;11.43;;;;;;;8.97;nan;94675.38;5046842;28;20214;-71
2022/03/04 11:10:45;;;;;;;21.20;10.55;;;;;;;9.16;nan;94678.94;5047203;28;20255;-72
2022/03/04 11:13:13;;;;;;;15.57;10.10;;;;;;;9.17;nan;94672.97;5046969;28;20199;-73
2022/03/04 11:15:41;;;;;;;14.02;9.80;;;;;;;9.28;nan;94662.47;5046291;28;20759;-72
2022/03/04 11:18:09;;;;;;;10.27;9.00;;;;;;;9.27;nan;94664.19;5047223;28;20622;-72
2022/03/04 11:20:36;;;;;;;9.18;6.88;;;;;;;9.49;nan;94659.19;5047671;28;20702;-72
2022/03/04 11:23:04;;;;;;;9.70;6.30;;;;;;;9.33;nan;94650.47;5046594;28;20290;-74
2022/03/04 11:25:39;;;;;;;9.40;7.03;;;;;;;9.47;nan;94650.81;5044495;28;20319;-73
2022/03/04 11:28:14;;;;;;;6.88;6.13;;;;;;;9.45;nan;94642.41;5046550;28;20271;-72
2022/03/04 11:30:44;;;;;;;8.65;5.93;;;;;;;9.67;nan;94642.47;5045871;28;20205;-72
2022/03/04 11:33:17;;;;;;;9.48;6.90;;;;;;;9.76;nan;94642.97;5047055;28;20260;-73
2022/03/04 11:35:59;;;;;;;8.43;6.68;;;;;;;9.80;nan;94631.00;5045985;28;20267;-72
2022/03/04 11:39:05;;;;;;;18.85;8.43;;;;;;;9.81;nan;94641.09;5047384;28;20284;-72
2022/03/04 11:41:48;;;;;;;18.40;9.80;;;;;;;9.67;nan;94632.31;5048789;28;20279;-72